Mildred, Montana
Current Conditions -  °F | °C
As of 5:55 AM on Wednesday 26 Nov 2014 (Local Time) from KGDV Reporting Station
Overcast Overcast  
Wind Chill: 23°   Ceiling: 1000
Heat Index: 23°   Visibility: 10mi
Dew Point: 19°   Wind: 3mph
Humidity: 86%   Direction: 10°N
Pressure: 30.23"   Gusts: NA
Location:  46.68°N, 104.96°W
Report Text: KGDV 261255Z AUTO 01003KT 10SM OVC010 M05/M07 A3023 RMK AO1
Loading
Personal Weather Stations






























Interactive Weather Map New forecast layout! Learn more

10-Day Weather Forecast

Advertisements
Track Severe Weather on mobile